sensor_id;sensor_type;location;lat;lon;timestamp;P1;durP1;ratioP1;P2;durP2;ratioP2
15936;SDS011;9163;48.818;8.976;2023-05-29T00:00:49;8.83;;;4.20;;
15936;SDS011;9163;48.818;8.976;2023-05-29T00:03:17;6.93;;;4.10;;
15936;SDS011;9163;48.818;8.976;2023-05-29T00:05:44;6.20;;;4.03;;
15936;SDS011;9163;48.818;8.976;2023-05-29T00:08:12;7.50;;;4.50;;
15936;SDS011;9163;48.818;8.976;2023-05-29T00:10:41;7.67;;;4.37;;
15936;SDS011;9163;48.818;8.976;2023-05-29T00:13:08;8.93;;;4.23;;
15936;SDS011;9163;48.818;8.976;2023-05-29T00:15:35;11.07;;;4.70;;
15936;SDS011;9163;48.818;8.976;2023-05-29T00:18:02;7.17;;;4.27;;
15936;SDS011;9163;48.818;8.976;2023-05-29T00:20:29;7.30;;;4.27;;
15936;SDS011;9163;48.818;8.976;2023-05-29T00:22:59;7.17;;;4.00;;
15936;SDS011;9163;48.818;8.976;2023-05-29T00:25:28;7.40;;;4.47;;
15936;SDS011;9163;48.818;8.976;2023-05-29T00:27:56;9.57;;;4.30;;
15936;SDS011;9163;48.818;8.976;2023-05-29T00:30:23;8.37;;;4.10;;
15936;SDS011;9163;48.818;8.976;2023-05-29T00:32:50;9.50;;;4.23;;
15936;SDS011;9163;48.818;8.976;2023-05-29T00:35:19;6.53;;;4.07;;
15936;SDS011;9163;48.818;8.976;2023-05-29T00:37:46;6.93;;;4.37;;
15936;SDS011;9163;48.818;8.976;2023-05-29T00:40:14;6.90;;;3.87;;
15936;SDS011;9163;48.818;8.976;2023-05-29T00:42:42;6.30;;;3.90;;
15936;SDS011;9163;48.818;8.976;2023-05-29T00:45:10;6.63;;;3.87;;
15936;SDS011;9163;48.818;8.976;2023-05-29T00:47:38;9.27;;;4.10;;
15936;SDS011;9163;48.818;8.976;2023-05-29T00:50:07;6.73;;;4.07;;
15936;SDS011;9163;48.818;8.976;2023-05-29T00:52:36;6.43;;;3.80;;
15936;SDS011;9163;48.818;8.976;2023-05-29T00:55:06;6.07;;;4.00;;
15936;SDS011;9163;48.818;8.976;2023-05-29T00:57:34;8.10;;;3.90;;
15936;SDS011;9163;48.818;8.976;2023-05-29T01:00:05;8.00;;;4.10;;
15936;SDS011;9163;48.818;8.976;2023-05-29T01:02:35;6.90;;;4.23;;
15936;SDS011;9163;48.818;8.976;2023-05-29T01:05:04;6.17;;;3.97;;
15936;SDS011;9163;48.818;8.976;2023-05-29T01:07:32;7.33;;;4.00;;
15936;SDS011;9163;48.818;8.976;2023-05-29T01:10:00;7.83;;;3.80;;
15936;SDS011;9163;48.818;8.976;2023-05-29T01:12:31;5.90;;;4.07;;
15936;SDS011;9163;48.818;8.976;2023-05-29T01:15:09;7.13;;;3.80;;
15936;SDS011;9163;48.818;8.976;2023-05-29T01:17:50;8.90;;;3.80;;
15936;SDS011;9163;48.818;8.976;2023-05-29T01:20:27;7.47;;;4.20;;
15936;SDS011;9163;48.818;8.976;2023-05-29T01:23:06;9.17;;;3.90;;
15936;SDS011;9163;48.818;8.976;2023-05-29T01:25:46;6.77;;;3.60;;
15936;SDS011;9163;48.818;8.976;2023-05-29T01:28:27;6.57;;;3.83;;
15936;SDS011;9163;48.818;8.976;2023-05-29T01:30:58;8.47;;;3.83;;
15936;SDS011;9163;48.818;8.976;2023-05-29T01:33:29;6.60;;;3.53;;
15936;SDS011;9163;48.818;8.976;2023-05-29T01:35:56;7.20;;;3.93;;
15936;SDS011;9163;48.818;8.976;2023-05-29T01:38:23;9.10;;;4.23;;
15936;SDS011;9163;48.818;8.976;2023-05-29T01:40:51;8.67;;;3.80;;
15936;SDS011;9163;48.818;8.976;2023-05-29T01:43:18;7.10;;;3.70;;
15936;SDS011;9163;48.818;8.976;2023-05-29T01:45:47;7.27;;;3.80;;
15936;SDS011;9163;48.818;8.976;2023-05-29T01:48:14;8.37;;;4.17;;
15936;SDS011;9163;48.818;8.976;2023-05-29T01:50:42;8.40;;;4.00;;
15936;SDS011;9163;48.818;8.976;2023-05-29T01:53:10;5.87;;;3.60;;
15936;SDS011;9163;48.818;8.976;2023-05-29T01:55:37;6.27;;;3.70;;
15936;SDS011;9163;48.818;8.976;2023-05-29T01:58:04;8.20;;;4.63;;
15936;SDS011;9163;48.818;8.976;2023-05-29T02:00:33;6.70;;;3.70;;
15936;SDS011;9163;48.818;8.976;2023-05-29T02:03:02;7.57;;;4.00;;
15936;SDS011;9163;48.818;8.976;2023-05-29T02:05:29;6.43;;;3.50;;
15936;SDS011;9163;48.818;8.976;2023-05-29T02:07:56;5.13;;;3.30;;
15936;SDS011;9163;48.818;8.976;2023-05-29T02:10:23;8.27;;;3.73;;
15936;SDS011;9163;48.818;8.976;2023-05-29T02:12:51;6.50;;;3.67;;
15936;SDS011;9163;48.818;8.976;2023-05-29T02:15:18;6.07;;;3.90;;
15936;SDS011;9163;48.818;8.976;2023-05-29T02:17:45;6.97;;;4.07;;
15936;SDS011;9163;48.818;8.976;2023-05-29T02:20:13;6.73;;;4.03;;
15936;SDS011;9163;48.818;8.976;2023-05-29T02:22:41;7.43;;;5.03;;
15936;SDS011;9163;48.818;8.976;2023-05-29T02:25:08;7.80;;;5.13;;
15936;SDS011;9163;48.818;8.976;2023-05-29T02:27:36;8.60;;;5.23;;
15936;SDS011;9163;48.818;8.976;2023-05-29T02:30:03;10.10;;;5.37;;
15936;SDS011;9163;48.818;8.976;2023-05-29T02:32:31;9.80;;;5.77;;
15936;SDS011;9163;48.818;8.976;2023-05-29T02:35:08;7.13;;;4.87;;
15936;SDS011;9163;48.818;8.976;2023-05-29T02:37:37;8.83;;;4.83;;
15936;SDS011;9163;48.818;8.976;2023-05-29T02:40:04;10.53;;;5.43;;
15936;SDS011;9163;48.818;8.976;2023-05-29T02:42:34;9.60;;;5.57;;
15936;SDS011;9163;48.818;8.976;2023-05-29T02:45:02;10.10;;;5.77;;
15936;SDS011;9163;48.818;8.976;2023-05-29T02:47:30;9.30;;;6.20;;
15936;SDS011;9163;48.818;8.976;2023-05-29T02:49:57;10.27;;;5.80;;
15936;SDS011;9163;48.818;8.976;2023-05-29T02:52:25;9.17;;;5.30;;
15936;SDS011;9163;48.818;8.976;2023-05-29T02:54:54;11.00;;;5.87;;
15936;SDS011;9163;48.818;8.976;2023-05-29T02:57:21;9.67;;;5.60;;
15936;SDS011;9163;48.818;8.976;2023-05-29T02:59:48;8.53;;;5.10;;
15936;SDS011;9163;48.818;8.976;2023-05-29T03:02:16;8.77;;;5.07;;
15936;SDS011;9163;48.818;8.976;2023-05-29T03:04:44;9.17;;;4.90;;
15936;SDS011;9163;48.818;8.976;2023-05-29T03:07:11;9.50;;;4.97;;
15936;SDS011;9163;48.818;8.976;2023-05-29T03:09:39;8.93;;;5.17;;
15936;SDS011;9163;48.818;8.976;2023-05-29T03:12:07;6.93;;;4.47;;
15936;SDS011;9163;48.818;8.976;2023-05-29T03:14:35;9.10;;;4.63;;
15936;SDS011;9163;48.818;8.976;2023-05-29T03:17:03;7.47;;;4.37;;
15936;SDS011;9163;48.818;8.976;2023-05-29T03:19:31;7.40;;;4.20;;
15936;SDS011;9163;48.818;8.976;2023-05-29T03:21:58;9.00;;;4.20;;
15936;SDS011;9163;48.818;8.976;2023-05-29T03:24:26;7.30;;;4.20;;
15936;SDS011;9163;48.818;8.976;2023-05-29T03:26:54;7.70;;;4.17;;
15936;SDS011;9163;48.818;8.976;2023-05-29T03:29:24;7.63;;;3.90;;
15936;SDS011;9163;48.818;8.976;2023-05-29T03:31:51;8.30;;;4.40;;
15936;SDS011;9163;48.818;8.976;2023-05-29T03:34:18;6.87;;;3.90;;
15936;SDS011;9163;48.818;8.976;2023-05-29T03:36:46;6.00;;;4.20;;
15936;SDS011;9163;48.818;8.976;2023-05-29T03:39:14;6.27;;;3.77;;
15936;SDS011;9163;48.818;8.976;2023-05-29T03:41:41;8.30;;;4.57;;
15936;SDS011;9163;48.818;8.976;2023-05-29T03:44:08;5.60;;;3.67;;
15936;SDS011;9163;48.818;8.976;2023-05-29T03:46:37;8.17;;;4.37;;
15936;SDS011;9163;48.818;8.976;2023-05-29T03:49:04;8.13;;;4.27;;
15936;SDS011;9163;48.818;8.976;2023-05-29T03:51:32;5.77;;;4.00;;
15936;SDS011;9163;48.818;8.976;2023-05-29T03:54:01;6.47;;;4.33;;
15936;SDS011;9163;48.818;8.976;2023-05-29T03:56:28;8.90;;;4.90;;
15936;SDS011;9163;48.818;8.976;2023-05-29T03:58:56;10.67;;;5.47;;
15936;SDS011;9163;48.818;8.976;2023-05-29T04:01:24;10.63;;;5.83;;
15936;SDS011;9163;48.818;8.976;2023-05-29T04:03:52;9.43;;;5.97;;
15936;SDS011;9163;48.818;8.976;2023-05-29T04:06:23;9.93;;;5.03;;
15936;SDS011;9163;48.818;8.976;2023-05-29T04:08:50;8.80;;;4.53;;
15936;SDS011;9163;48.818;8.976;2023-05-29T04:11:17;8.53;;;4.27;;
15936;SDS011;9163;48.818;8.976;2023-05-29T04:13:47;9.50;;;4.20;;
15936;SDS011;9163;48.818;8.976;2023-05-29T04:16:15;8.13;;;3.90;;
15936;SDS011;9163;48.818;8.976;2023-05-29T04:18:42;7.13;;;3.97;;
15936;SDS011;9163;48.818;8.976;2023-05-29T04:21:11;8.17;;;4.20;;
15936;SDS011;9163;48.818;8.976;2023-05-29T04:23:38;8.87;;;4.30;;
15936;SDS011;9163;48.818;8.976;2023-05-29T04:26:08;6.60;;;4.07;;
15936;SDS011;9163;48.818;8.976;2023-05-29T04:28:36;9.13;;;4.20;;
15936;SDS011;9163;48.818;8.976;2023-05-29T04:31:06;7.47;;;4.47;;
15936;SDS011;9163;48.818;8.976;2023-05-29T04:33:34;7.67;;;4.47;;
15936;SDS011;9163;48.818;8.976;2023-05-29T04:36:02;6.83;;;4.43;;
15936;SDS011;9163;48.818;8.976;2023-05-29T04:38:32;7.73;;;4.33;;
15936;SDS011;9163;48.818;8.976;2023-05-29T04:40:59;7.63;;;4.53;;
15936;SDS011;9163;48.818;8.976;2023-05-29T04:43:26;6.27;;;3.70;;
15936;SDS011;9163;48.818;8.976;2023-05-29T04:45:53;11.10;;;3.90;;
15936;SDS011;9163;48.818;8.976;2023-05-29T04:48:20;5.93;;;3.73;;
15936;SDS011;9163;48.818;8.976;2023-05-29T04:50:48;9.20;;;3.63;;
15936;SDS011;9163;48.818;8.976;2023-05-29T04:53:18;10.00;;;3.57;;
15936;SDS011;9163;48.818;8.976;2023-05-29T04:55:47;6.07;;;3.60;;
15936;SDS011;9163;48.818;8.976;2023-05-29T04:58:14;6.20;;;3.50;;
15936;SDS011;9163;48.818;8.976;2023-05-29T05:00:41;8.80;;;3.97;;
15936;SDS011;9163;48.818;8.976;2023-05-29T05:03:09;7.40;;;4.50;;
15936;SDS011;9163;48.818;8.976;2023-05-29T05:05:36;9.03;;;4.63;;
15936;SDS011;9163;48.818;8.976;2023-05-29T05:08:03;7.87;;;4.50;;
15936;SDS011;9163;48.818;8.976;2023-05-29T05:10:31;7.73;;;4.70;;
15936;SDS011;9163;48.818;8.976;2023-05-29T05:12:59;8.20;;;4.43;;
15936;SDS011;9163;48.818;8.976;2023-05-29T05:15:28;8.87;;;5.13;;
15936;SDS011;9163;48.818;8.976;2023-05-29T05:17:55;6.73;;;4.77;;
15936;SDS011;9163;48.818;8.976;2023-05-29T05:20:22;7.27;;;4.57;;
15936;SDS011;9163;48.818;8.976;2023-05-29T05:22:49;8.30;;;5.27;;
15936;SDS011;9163;48.818;8.976;2023-05-29T05:25:17;8.40;;;5.20;;
15936;SDS011;9163;48.818;8.976;2023-05-29T05:27:44;10.63;;;5.17;;
15936;SDS011;9163;48.818;8.976;2023-05-29T05:30:13;10.40;;;5.60;;
15936;SDS011;9163;48.818;8.976;2023-05-29T05:32:40;8.00;;;4.90;;
15936;SDS011;9163;48.818;8.976;2023-05-29T05:35:08;9.13;;;5.27;;
15936;SDS011;9163;48.818;8.976;2023-05-29T05:37:36;11.17;;;4.93;;
15936;SDS011;9163;48.818;8.976;2023-05-29T05:40:04;9.10;;;5.00;;
15936;SDS011;9163;48.818;8.976;2023-05-29T05:42:34;10.23;;;4.97;;
15936;SDS011;9163;48.818;8.976;2023-05-29T05:45:07;8.53;;;4.80;;
15936;SDS011;9163;48.818;8.976;2023-05-29T05:47:37;6.73;;;4.20;;
15936;SDS011;9163;48.818;8.976;2023-05-29T05:50:04;6.83;;;4.07;;
15936;SDS011;9163;48.818;8.976;2023-05-29T05:52:33;6.70;;;4.30;;
15936;SDS011;9163;48.818;8.976;2023-05-29T05:55:00;8.10;;;3.97;;
15936;SDS011;9163;48.818;8.976;2023-05-29T05:57:28;6.03;;;3.37;;
15936;SDS011;9163;48.818;8.976;2023-05-29T05:59:57;7.87;;;3.80;;
15936;SDS011;9163;48.818;8.976;2023-05-29T06:02:25;6.07;;;3.80;;
15936;SDS011;9163;48.818;8.976;2023-05-29T06:04:54;6.47;;;4.00;;
15936;SDS011;9163;48.818;8.976;2023-05-29T06:07:21;6.73;;;3.87;;
15936;SDS011;9163;48.818;8.976;2023-05-29T06:09:48;8.13;;;3.83;;
15936;SDS011;9163;48.818;8.976;2023-05-29T06:12:15;8.43;;;4.00;;
15936;SDS011;9163;48.818;8.976;2023-05-29T06:14:42;8.50;;;3.97;;
15936;SDS011;9163;48.818;8.976;2023-05-29T06:17:10;6.27;;;3.70;;
15936;SDS011;9163;48.818;8.976;2023-05-29T06:19:37;8.60;;;3.67;;
15936;SDS011;9163;48.818;8.976;2023-05-29T06:22:06;6.47;;;3.70;;
15936;SDS011;9163;48.818;8.976;2023-05-29T06:24:33;6.50;;;3.93;;
15936;SDS011;9163;48.818;8.976;2023-05-29T06:27:00;9.17;;;4.30;;
15936;SDS011;9163;48.818;8.976;2023-05-29T06:29:27;7.00;;;3.53;;
15936;SDS011;9163;48.818;8.976;2023-05-29T06:31:55;6.83;;;3.90;;
15936;SDS011;9163;48.818;8.976;2023-05-29T06:34:22;6.93;;;3.80;;
15936;SDS011;9163;48.818;8.976;2023-05-29T06:36:49;6.27;;;3.63;;
15936;SDS011;9163;48.818;8.976;2023-05-29T06:39:18;6.77;;;3.80;;
15936;SDS011;9163;48.818;8.976;2023-05-29T06:41:45;7.20;;;3.90;;
15936;SDS011;9163;48.818;8.976;2023-05-29T06:44:12;7.63;;;3.73;;
15936;SDS011;9163;48.818;8.976;2023-05-29T06:46:40;5.87;;;4.20;;
15936;SDS011;9163;48.818;8.976;2023-05-29T06:49:07;5.60;;;3.87;;
15936;SDS011;9163;48.818;8.976;2023-05-29T06:51:34;8.27;;;3.60;;
15936;SDS011;9163;48.818;8.976;2023-05-29T06:54:01;8.07;;;3.70;;
15936;SDS011;9163;48.818;8.976;2023-05-29T06:56:30;6.73;;;3.60;;
15936;SDS011;9163;48.818;8.976;2023-05-29T06:58:57;7.97;;;4.07;;
15936;SDS011;9163;48.818;8.976;2023-05-29T07:01:24;6.60;;;4.00;;
15936;SDS011;9163;48.818;8.976;2023-05-29T07:03:52;9.20;;;4.10;;
15936;SDS011;9163;48.818;8.976;2023-05-29T07:06:19;7.93;;;3.90;;
15936;SDS011;9163;48.818;8.976;2023-05-29T07:08:46;6.47;;;3.70;;
15936;SDS011;9163;48.818;8.976;2023-05-29T07:11:14;6.93;;;4.00;;
15936;SDS011;9163;48.818;8.976;2023-05-29T07:13:42;6.07;;;3.50;;
15936;SDS011;9163;48.818;8.976;2023-05-29T07:16:09;8.13;;;3.70;;
15936;SDS011;9163;48.818;8.976;2023-05-29T07:18:36;7.57;;;4.00;;
15936;SDS011;9163;48.818;8.976;2023-05-29T07:21:07;6.33;;;4.20;;
15936;SDS011;9163;48.818;8.976;2023-05-29T07:23:34;6.97;;;4.30;;
15936;SDS011;9163;48.818;8.976;2023-05-29T07:26:02;10.60;;;4.30;;
15936;SDS011;9163;48.818;8.976;2023-05-29T07:28:29;7.17;;;3.90;;
15936;SDS011;9163;48.818;8.976;2023-05-29T07:30:57;7.10;;;4.20;;
15936;SDS011;9163;48.818;8.976;2023-05-29T07:33:25;4.57;;;3.50;;
15936;SDS011;9163;48.818;8.976;2023-05-29T07:35:52;6.77;;;3.93;;
15936;SDS011;9163;48.818;8.976;2023-05-29T07:38:19;6.50;;;3.97;;
15936;SDS011;9163;48.818;8.976;2023-05-29T07:40:47;8.27;;;4.27;;
15936;SDS011;9163;48.818;8.976;2023-05-29T07:43:14;7.70;;;4.30;;
15936;SDS011;9163;48.818;8.976;2023-05-29T07:45:41;8.53;;;4.53;;
15936;SDS011;9163;48.818;8.976;2023-05-29T07:48:10;6.37;;;4.50;;
15936;SDS011;9163;48.818;8.976;2023-05-29T07:50:37;6.50;;;4.57;;
15936;SDS011;9163;48.818;8.976;2023-05-29T07:53:05;6.33;;;4.37;;
15936;SDS011;9163;48.818;8.976;2023-05-29T07:55:33;6.90;;;4.00;;
15936;SDS011;9163;48.818;8.976;2023-05-29T07:58:01;9.83;;;4.30;;
15936;SDS011;9163;48.818;8.976;2023-05-29T08:00:28;6.20;;;4.20;;
15936;SDS011;9163;48.818;8.976;2023-05-29T08:02:55;6.40;;;4.03;;
15936;SDS011;9163;48.818;8.976;2023-05-29T08:05:25;8.00;;;4.20;;
15936;SDS011;9163;48.818;8.976;2023-05-29T08:07:52;8.27;;;4.23;;
15936;SDS011;9163;48.818;8.976;2023-05-29T08:10:19;8.60;;;4.07;;
15936;SDS011;9163;48.818;8.976;2023-05-29T08:12:46;7.53;;;3.90;;
15936;SDS011;9163;48.818;8.976;2023-05-29T08:15:14;5.50;;;3.93;;
15936;SDS011;9163;48.818;8.976;2023-05-29T08:17:42;5.93;;;3.83;;
15936;SDS011;9163;48.818;8.976;2023-05-29T08:20:09;6.47;;;3.70;;
15936;SDS011;9163;48.818;8.976;2023-05-29T08:22:38;6.00;;;3.90;;
15936;SDS011;9163;48.818;8.976;2023-05-29T08:25:05;6.90;;;4.20;;
15936;SDS011;9163;48.818;8.976;2023-05-29T08:27:33;5.60;;;4.00;;
15936;SDS011;9163;48.818;8.976;2023-05-29T08:30:01;5.87;;;3.73;;
15936;SDS011;9163;48.818;8.976;2023-05-29T08:32:29;5.63;;;3.80;;
15936;SDS011;9163;48.818;8.976;2023-05-29T08:34:56;8.77;;;4.10;;
15936;SDS011;9163;48.818;8.976;2023-05-29T08:37:23;7.72;;;3.78;;
15936;SDS011;9163;48.818;8.976;2023-05-29T08:39:52;5.50;;;3.90;;
15936;SDS011;9163;48.818;8.976;2023-05-29T08:42:20;6.80;;;4.10;;
15936;SDS011;9163;48.818;8.976;2023-05-29T08:44:55;7.85;;;3.80;;
15936;SDS011;9163;48.818;8.976;2023-05-29T08:47:24;8.80;;;4.25;;
15936;SDS011;9163;48.818;8.976;2023-05-29T08:49:53;5.95;;;3.63;;
15936;SDS011;9163;48.818;8.976;2023-05-29T08:52:22;7.85;;;3.83;;
15936;SDS011;9163;48.818;8.976;2023-05-29T08:54:53;7.95;;;4.15;;
15936;SDS011;9163;48.818;8.976;2023-05-29T08:57:21;9.18;;;4.25;;
15936;SDS011;9163;48.818;8.976;2023-05-29T08:59:51;7.97;;;4.15;;
15936;SDS011;9163;48.818;8.976;2023-05-29T09:02:18;6.85;;;4.07;;
15936;SDS011;9163;48.818;8.976;2023-05-29T09:04:46;7.78;;;4.38;;
15936;SDS011;9163;48.818;8.976;2023-05-29T09:07:14;9.00;;;4.43;;
15936;SDS011;9163;48.818;8.976;2023-05-29T09:09:42;7.72;;;4.40;;
15936;SDS011;9163;48.818;8.976;2023-05-29T09:12:12;5.72;;;3.90;;
15936;SDS011;9163;48.818;8.976;2023-05-29T09:14:40;7.53;;;4.15;;
15936;SDS011;9163;48.818;8.976;2023-05-29T09:17:10;6.40;;;4.13;;
15936;SDS011;9163;48.818;8.976;2023-05-29T09:19:38;6.97;;;4.38;;
15936;SDS011;9163;48.818;8.976;2023-05-29T09:22:07;6.60;;;4.07;;
15936;SDS011;9163;48.818;8.976;2023-05-29T09:24:36;8.15;;;4.38;;
15936;SDS011;9163;48.818;8.976;2023-05-29T09:27:04;9.98;;;4.10;;
15936;SDS011;9163;48.818;8.976;2023-05-29T09:29:36;5.80;;;3.72;;
15936;SDS011;9163;48.818;8.976;2023-05-29T09:32:06;5.70;;;4.13;;
15936;SDS011;9163;48.818;8.976;2023-05-29T09:34:34;7.68;;;4.18;;
15936;SDS011;9163;48.818;8.976;2023-05-29T09:37:02;6.78;;;3.97;;
15936;SDS011;9163;48.818;8.976;2023-05-29T09:39:34;6.60;;;4.07;;
15936;SDS011;9163;48.818;8.976;2023-05-29T09:42:10;7.40;;;4.20;;
15936;SDS011;9163;48.818;8.976;2023-05-29T09:44:39;4.18;;;3.60;;
15936;SDS011;9163;48.818;8.976;2023-05-29T09:47:07;6.93;;;4.05;;
15936;SDS011;9163;48.818;8.976;2023-05-29T09:49:34;6.28;;;4.10;;
15936;SDS011;9163;48.818;8.976;2023-05-29T09:52:06;5.78;;;4.05;;
15936;SDS011;9163;48.818;8.976;2023-05-29T09:54:34;6.18;;;3.83;;
15936;SDS011;9163;48.818;8.976;2023-05-29T09:57:03;6.43;;;4.20;;
15936;SDS011;9163;48.818;8.976;2023-05-29T09:59:32;8.93;;;4.45;;
15936;SDS011;9163;48.818;8.976;2023-05-29T10:02:02;5.97;;;3.83;;
15936;SDS011;9163;48.818;8.976;2023-05-29T10:04:32;7.38;;;4.32;;
15936;SDS011;9163;48.818;8.976;2023-05-29T10:07:03;5.65;;;3.60;;
15936;SDS011;9163;48.818;8.976;2023-05-29T10:09:38;6.50;;;3.55;;
15936;SDS011;9163;48.818;8.976;2023-05-29T10:12:10;6.75;;;4.07;;
15936;SDS011;9163;48.818;8.976;2023-05-29T10:14:38;7.70;;;3.70;;
15936;SDS011;9163;48.818;8.976;2023-05-29T10:17:09;6.20;;;3.97;;
15936;SDS011;9163;48.818;8.976;2023-05-29T10:19:41;6.85;;;3.95;;
15936;SDS011;9163;48.818;8.976;2023-05-29T10:22:10;4.63;;;3.70;;
15936;SDS011;9163;48.818;8.976;2023-05-29T10:24:37;6.55;;;3.70;;
15936;SDS011;9163;48.818;8.976;2023-05-29T10:27:05;5.65;;;3.90;;
15936;SDS011;9163;48.818;8.976;2023-05-29T10:29:34;6.93;;;4.13;;
15936;SDS011;9163;48.818;8.976;2023-05-29T10:32:06;5.63;;;3.63;;
15936;SDS011;9163;48.818;8.976;2023-05-29T10:34:45;5.47;;;3.70;;
15936;SDS011;9163;48.818;8.976;2023-05-29T10:37:22;6.38;;;4.13;;
15936;SDS011;9163;48.818;8.976;2023-05-29T10:40:03;4.97;;;3.50;;
15936;SDS011;9163;48.818;8.976;2023-05-29T10:42:41;4.68;;;3.35;;
15936;SDS011;9163;48.818;8.976;2023-05-29T10:45:10;7.45;;;3.97;;
15936;SDS011;9163;48.818;8.976;2023-05-29T10:48:03;6.55;;;3.75;;
15936;SDS011;9163;48.818;8.976;2023-05-29T10:51:06;5.38;;;3.70;;
15936;SDS011;9163;48.818;8.976;2023-05-29T10:53:34;5.30;;;3.65;;
15936;SDS011;9163;48.818;8.976;2023-05-29T10:56:08;6.72;;;3.55;;
15936;SDS011;9163;48.818;8.976;2023-05-29T10:58:42;6.88;;;3.60;;
15936;SDS011;9163;48.818;8.976;2023-05-29T11:01:09;5.43;;;3.78;;
15936;SDS011;9163;48.818;8.976;2023-05-29T11:03:38;7.38;;;3.75;;
15936;SDS011;9163;48.818;8.976;2023-05-29T11:06:05;5.18;;;3.38;;
15936;SDS011;9163;48.818;8.976;2023-05-29T11:08:41;5.28;;;3.80;;
15936;SDS011;9163;48.818;8.976;2023-05-29T11:11:11;9.02;;;4.18;;
15936;SDS011;9163;48.818;8.976;2023-05-29T11:13:38;7.53;;;3.65;;
15936;SDS011;9163;48.818;8.976;2023-05-29T11:16:11;6.22;;;3.83;;
15936;SDS011;9163;48.818;8.976;2023-05-29T11:18:42;5.10;;;3.45;;
15936;SDS011;9163;48.818;8.976;2023-05-29T11:21:15;6.72;;;4.18;;
15936;SDS011;9163;48.818;8.976;2023-05-29T11:23:50;7.65;;;3.92;;
15936;SDS011;9163;48.818;8.976;2023-05-29T11:26:19;7.05;;;3.67;;
15936;SDS011;9163;48.818;8.976;2023-05-29T11:28:47;5.63;;;3.70;;
15936;SDS011;9163;48.818;8.976;2023-05-29T11:31:14;6.15;;;3.78;;
15936;SDS011;9163;48.818;8.976;2023-05-29T11:33:47;5.07;;;3.28;;
15936;SDS011;9163;48.818;8.976;2023-05-29T11:36:17;6.15;;;4.28;;
15936;SDS011;9163;48.818;8.976;2023-05-29T11:38:45;8.23;;;4.45;;
15936;SDS011;9163;48.818;8.976;2023-05-29T11:41:12;8.10;;;5.32;;
15936;SDS011;9163;48.818;8.976;2023-05-29T11:43:40;6.50;;;5.38;;
15936;SDS011;9163;48.818;8.976;2023-05-29T11:46:14;6.70;;;3.55;;
15936;SDS011;9163;48.818;8.976;2023-05-29T11:48:47;5.97;;;4.53;;
15936;SDS011;9163;48.818;8.976;2023-05-29T11:51:15;5.75;;;3.38;;
15936;SDS011;9163;48.818;8.976;2023-05-29T11:53:42;6.55;;;4.95;;
15936;SDS011;9163;48.818;8.976;2023-05-29T11:56:10;9.90;;;8.52;;
15936;SDS011;9163;48.818;8.976;2023-05-29T11:58:38;7.90;;;4.10;;
15936;SDS011;9163;48.818;8.976;2023-05-29T12:01:05;5.47;;;4.05;;
15936;SDS011;9163;48.818;8.976;2023-05-29T12:03:37;7.35;;;3.85;;
15936;SDS011;9163;48.818;8.976;2023-05-29T12:06:07;7.60;;;4.65;;
15936;SDS011;9163;48.818;8.976;2023-05-29T12:08:36;6.00;;;3.45;;
15936;SDS011;9163;48.818;8.976;2023-05-29T12:11:03;4.97;;;4.00;;
15936;SDS011;9163;48.818;8.976;2023-05-29T12:13:31;5.28;;;3.78;;
15936;SDS011;9163;48.818;8.976;2023-05-29T12:15:59;7.88;;;3.30;;
15936;SDS011;9163;48.818;8.976;2023-05-29T12:18:29;5.18;;;3.70;;
15936;SDS011;9163;48.818;8.976;2023-05-29T12:20:57;4.90;;;3.83;;
15936;SDS011;9163;48.818;8.976;2023-05-29T12:23:26;6.68;;;3.80;;
15936;SDS011;9163;48.818;8.976;2023-05-29T12:25:54;3.90;;;3.13;;
15936;SDS011;9163;48.818;8.976;2023-05-29T12:28:22;4.38;;;2.97;;
15936;SDS011;9163;48.818;8.976;2023-05-29T12:30:49;5.38;;;3.38;;
15936;SDS011;9163;48.818;8.976;2023-05-29T12:33:24;6.22;;;3.03;;
15936;SDS011;9163;48.818;8.976;2023-05-29T12:35:53;5.72;;;3.30;;
15936;SDS011;9163;48.818;8.976;2023-05-29T12:38:22;5.50;;;3.80;;
15936;SDS011;9163;48.818;8.976;2023-05-29T12:40:51;4.05;;;3.17;;
15936;SDS011;9163;48.818;8.976;2023-05-29T12:43:19;5.28;;;3.03;;
15936;SDS011;9163;48.818;8.976;2023-05-29T12:45:46;4.82;;;3.80;;
15936;SDS011;9163;48.818;8.976;2023-05-29T12:48:21;4.47;;;3.00;;
15936;SDS011;9163;48.818;8.976;2023-05-29T12:50:53;3.60;;;2.75;;
15936;SDS011;9163;48.818;8.976;2023-05-29T12:53:21;5.90;;;3.50;;
15936;SDS011;9163;48.818;8.976;2023-05-29T12:55:48;4.45;;;2.78;;
15936;SDS011;9163;48.818;8.976;2023-05-29T12:58:17;6.13;;;3.20;;
15936;SDS011;9163;48.818;8.976;2023-05-29T13:00:45;3.38;;;2.72;;
15936;SDS011;9163;48.818;8.976;2023-05-29T13:03:13;4.75;;;3.05;;
15936;SDS011;9163;48.818;8.976;2023-05-29T13:05:40;6.20;;;3.17;;
15936;SDS011;9163;48.818;8.976;2023-05-29T13:08:07;6.25;;;2.78;;
15936;SDS011;9163;48.818;8.976;2023-05-29T13:10:35;5.13;;;3.38;;
15936;SDS011;9163;48.818;8.976;2023-05-29T13:13:02;3.88;;;2.92;;
15936;SDS011;9163;48.818;8.976;2023-05-29T13:15:31;3.50;;;2.95;;
15936;SDS011;9163;48.818;8.976;2023-05-29T13:17:59;4.95;;;2.63;;
15936;SDS011;9163;48.818;8.976;2023-05-29T13:20:26;5.60;;;2.90;;
15936;SDS011;9163;48.818;8.976;2023-05-29T13:22:54;5.25;;;3.15;;
15936;SDS011;9163;48.818;8.976;2023-05-29T13:25:21;5.15;;;2.92;;
15936;SDS011;9163;48.818;8.976;2023-05-29T13:27:49;5.15;;;3.10;;
15936;SDS011;9163;48.818;8.976;2023-05-29T13:30:16;5.72;;;3.00;;
15936;SDS011;9163;48.818;8.976;2023-05-29T13:32:45;7.18;;;2.97;;
15936;SDS011;9163;48.818;8.976;2023-05-29T13:35:12;4.65;;;2.97;;
15936;SDS011;9163;48.818;8.976;2023-05-29T13:37:39;4.13;;;3.08;;
15936;SDS011;9163;48.818;8.976;2023-05-29T13:40:08;5.38;;;2.92;;
15936;SDS011;9163;48.818;8.976;2023-05-29T13:42:36;3.28;;;2.85;;
15936;SDS011;9163;48.818;8.976;2023-05-29T13:45:04;4.28;;;2.80;;
15936;SDS011;9163;48.818;8.976;2023-05-29T13:47:33;5.93;;;2.88;;
15936;SDS011;9163;48.818;8.976;2023-05-29T13:50:02;5.32;;;2.92;;
15936;SDS011;9163;48.818;8.976;2023-05-29T13:52:29;4.75;;;2.70;;
15936;SDS011;9163;48.818;8.976;2023-05-29T13:54:56;4.45;;;3.08;;
15936;SDS011;9163;48.818;8.976;2023-05-29T13:57:26;2.85;;;2.55;;
15936;SDS011;9163;48.818;8.976;2023-05-29T13:59:54;4.95;;;3.00;;
15936;SDS011;9163;48.818;8.976;2023-05-29T14:02:22;5.00;;;2.97;;
15936;SDS011;9163;48.818;8.976;2023-05-29T14:04:50;3.10;;;2.80;;
15936;SDS011;9163;48.818;8.976;2023-05-29T14:07:19;4.28;;;3.20;;
15936;SDS011;9163;48.818;8.976;2023-05-29T14:09:46;3.95;;;3.00;;
15936;SDS011;9163;48.818;8.976;2023-05-29T14:12:13;3.28;;;2.97;;
15936;SDS011;9163;48.818;8.976;2023-05-29T14:14:41;4.65;;;3.10;;
15936;SDS011;9163;48.818;8.976;2023-05-29T14:17:08;5.10;;;3.10;;
15936;SDS011;9163;48.818;8.976;2023-05-29T14:19:37;4.97;;;3.20;;
15936;SDS011;9163;48.818;8.976;2023-05-29T14:22:04;4.72;;;3.08;;
15936;SDS011;9163;48.818;8.976;2023-05-29T14:24:33;3.75;;;2.83;;
15936;SDS011;9163;48.818;8.976;2023-05-29T14:27:01;6.07;;;3.05;;
15936;SDS011;9163;48.818;8.976;2023-05-29T14:29:29;4.68;;;2.97;;
15936;SDS011;9163;48.818;8.976;2023-05-29T14:31:56;2.92;;;2.63;;
15936;SDS011;9163;48.818;8.976;2023-05-29T14:34:23;5.70;;;3.10;;
15936;SDS011;9163;48.818;8.976;2023-05-29T14:36:51;5.07;;;2.78;;
15936;SDS011;9163;48.818;8.976;2023-05-29T14:39:18;4.30;;;2.70;;
15936;SDS011;9163;48.818;8.976;2023-05-29T14:41:46;4.60;;;2.75;;
15936;SDS011;9163;48.818;8.976;2023-05-29T14:44:14;5.43;;;3.00;;
15936;SDS011;9163;48.818;8.976;2023-05-29T14:46:41;5.78;;;2.90;;
15936;SDS011;9163;48.818;8.976;2023-05-29T14:49:08;4.13;;;3.03;;
15936;SDS011;9163;48.818;8.976;2023-05-29T14:51:35;3.28;;;2.97;;
15936;SDS011;9163;48.818;8.976;2023-05-29T14:54:04;3.83;;;2.70;;
15936;SDS011;9163;48.818;8.976;2023-05-29T14:56:34;5.05;;;2.90;;
15936;SDS011;9163;48.818;8.976;2023-05-29T14:59:09;3.47;;;2.70;;
15936;SDS011;9163;48.818;8.976;2023-05-29T15:01:36;4.80;;;3.00;;
15936;SDS011;9163;48.818;8.976;2023-05-29T15:04:03;4.93;;;2.60;;
15936;SDS011;9163;48.818;8.976;2023-05-29T15:06:31;4.88;;;2.60;;
15936;SDS011;9163;48.818;8.976;2023-05-29T15:08:58;4.20;;;2.67;;